createdAt,value
2022-08-03T00:01:35.474Z,101174.41
2022-08-03T00:04:02.329Z,101162.41
2022-08-03T00:06:31.686Z,101171.06
2022-08-03T00:09:02.079Z,101165.75
2022-08-03T00:11:28.912Z,101162.94
2022-08-03T00:13:55.869Z,101165.94
2022-08-03T00:16:22.614Z,101157.63
2022-08-03T00:18:50.041Z,101161.47
2022-08-03T00:21:16.948Z,101164.41
2022-08-03T00:23:52.565Z,101160.13
2022-08-03T00:26:20.206Z,101157.81
2022-08-03T00:28:47.085Z,101155.72
2022-08-03T00:31:14.015Z,101155.09
2022-08-03T00:33:58.267Z,101154.38
2022-08-03T00:36:26.816Z,101154.31
2022-08-03T00:38:53.873Z,101151.34
2022-08-03T00:41:20.805Z,101145.09
2022-08-03T00:43:48.087Z,101150.53
2022-08-03T00:46:19.262Z,101151.03
2022-08-03T00:48:49.288Z,101143.22
2022-08-03T00:51:16.423Z,101152.47
2022-08-03T00:53:43.642Z,101149.88
2022-08-03T00:56:13.373Z,101155.09
2022-08-03T00:58:40.405Z,101142.63
2022-08-03T01:01:07.558Z,101144.81
2022-08-03T01:03:34.836Z,101148.69
2022-08-03T01:06:13.304Z,101140.53
2022-08-03T01:08:48.127Z,101133.03
2022-08-03T01:11:21.397Z,101146.06
2022-08-03T01:14:03.895Z,101142.81
2022-08-03T01:16:48.431Z,101142.81
2022-08-03T01:19:33.665Z,101139.41
2022-08-03T01:22:11.222Z,101151.56
2022-08-03T01:24:45.071Z,101146.56
2022-08-03T01:27:11.810Z,101156.59
2022-08-03T01:29:52.884Z,101149.00
2022-08-03T01:32:58.936Z,101144.97
2022-08-03T01:35:14.767Z,101154.13
2022-08-03T01:37:48.022Z,101149.53
2022-08-03T01:40:16.320Z,101153.59
2022-08-03T01:42:44.973Z,101153.06
2022-08-03T01:45:13.116Z,101156.53
2022-08-03T01:47:40.878Z,101156.72
2022-08-03T01:50:09.175Z,101166.66
2022-08-03T01:52:38.326Z,101161.66
2022-08-03T01:55:06.188Z,101161.28
2022-08-03T01:57:33.954Z,101157.22
2022-08-03T02:00:20.962Z,101160.84
2022-08-03T02:02:49.677Z,101159.59
2022-08-03T02:05:18.077Z,101163.03
2022-08-03T02:07:47.061Z,101152.34
2022-08-03T02:10:16.772Z,101162.94
2022-08-03T02:13:06.433Z,101161.78
2022-08-03T02:15:40.370Z,101156.47
2022-08-03T02:18:09.073Z,101162.19
2022-08-03T02:20:39.527Z,101158.00
2022-08-03T02:23:07.534Z,101156.38
2022-08-03T02:25:39.124Z,101154.16
2022-08-03T02:28:08.901Z,101145.97
2022-08-03T02:30:40.900Z,101151.97
2022-08-03T02:33:11.470Z,101139.25
2022-08-03T02:35:40.294Z,101146.34
2022-08-03T02:38:18.008Z,101143.44
2022-08-03T02:40:45.557Z,101143.13
2022-08-03T02:43:16.745Z,101148.03
2022-08-03T02:45:45.962Z,101152.91
2022-08-03T02:48:26.675Z,101148.13
2022-08-03T02:50:54.564Z,101143.94
2022-08-03T02:53:22.924Z,101145.41
2022-08-03T02:55:50.644Z,101141.88
2022-08-03T02:58:26.354Z,101133.63
2022-08-03T03:00:53.962Z,101137.09
2022-08-03T03:03:22.427Z,101130.69
2022-08-03T03:05:55.557Z,101129.53
2022-08-03T03:08:29.753Z,101121.44
2022-08-03T03:10:58.556Z,101116.97
2022-08-03T03:13:26.048Z,101122.59
2022-08-03T03:15:53.733Z,101113.41
2022-08-03T03:18:25.330Z,101112.03
2022-08-03T03:20:53.342Z,101111.22
2022-08-03T03:23:22.062Z,101104.78
2022-08-03T03:25:49.176Z,101099.97
2022-08-03T03:28:15.880Z,101104.31
2022-08-03T03:30:43.205Z,101102.38
2022-08-03T03:33:10.064Z,101099.03
2022-08-03T03:35:39.396Z,101097.53
2022-08-03T03:38:09.105Z,101103.00
2022-08-03T03:40:36.382Z,101111.84
2022-08-03T03:43:03.477Z,101105.03
2022-08-03T03:45:31.332Z,101114.31
2022-08-03T03:47:59.918Z,101117.03
2022-08-03T03:50:27.768Z,101117.78
2022-08-03T03:52:55.548Z,101112.22
2022-08-03T03:55:22.582Z,101108.78
2022-08-03T03:57:49.316Z,101104.94
2022-08-03T04:00:17.226Z,101116.56
2022-08-03T04:02:54.537Z,101108.50
2022-08-03T04:05:43.003Z,101110.69
2022-08-03T04:08:37.431Z,101116.09
2022-08-03T04:11:13.060Z,101115.94
2022-08-03T04:13:45.256Z,101124.03
2022-08-03T04:16:13.466Z,101121.56
2022-08-03T04:18:41.829Z,101119.88
2022-08-03T04:21:13.682Z,101131.44
2022-08-03T04:23:43.143Z,101127.69
2022-08-03T04:26:12.187Z,101119.22
2022-08-03T04:28:41.707Z,101123.91
2022-08-03T04:31:08.607Z,101139.38
2022-08-03T04:33:37.555Z,101136.69
2022-08-03T04:36:06.217Z,101136.44
2022-08-03T04:38:37.137Z,101135.94
2022-08-03T04:41:03.930Z,101137.25
2022-08-03T04:43:31.905Z,101141.44
2022-08-03T04:45:59.602Z,101150.19
2022-08-03T04:48:27.043Z,101153.75
2022-08-03T04:50:54.269Z,101147.19
2022-08-03T04:53:21.526Z,101145.03
2022-08-03T04:55:48.403Z,101149.00
2022-08-03T04:58:15.232Z,101147.22
2022-08-03T05:00:43.173Z,101148.34
2022-08-03T05:03:23.790Z,101154.63
2022-08-03T05:05:52.308Z,101154.78
2022-08-03T05:08:20.606Z,101158.66
2022-08-03T05:10:55.579Z,101153.16
2022-08-03T05:13:26.088Z,101172.69
2022-08-03T05:15:52.873Z,101165.41
2022-08-03T05:18:19.891Z,101160.50
2022-08-03T05:20:46.685Z,101163.25
2022-08-03T05:23:13.464Z,101161.34
2022-08-03T05:25:40.117Z,101163.78
2022-08-03T05:28:16.612Z,101167.41
2022-08-03T05:30:43.411Z,101167.31
2022-08-03T05:33:10.068Z,101168.88
2022-08-03T05:35:55.881Z,101167.28
2022-08-03T05:38:33.890Z,101166.34
2022-08-03T05:41:20.403Z,101158.25
2022-08-03T05:43:48.679Z,101163.44
2022-08-03T05:46:15.591Z,101167.09
2022-08-03T05:48:43.145Z,101157.06
2022-08-03T05:51:11.965Z,101157.72
2022-08-03T05:53:39.140Z,101168.75
2022-08-03T05:56:13.543Z,101167.63
2022-08-03T05:58:48.291Z,101166.69
2022-08-03T06:01:17.983Z,101165.13
2022-08-03T06:03:47.202Z,101170.66
2022-08-03T06:06:14.265Z,101163.66
2022-08-03T06:08:41.569Z,101169.28
2022-08-03T06:11:08.464Z,101163.44
2022-08-03T06:13:35.323Z,101164.81
2022-08-03T06:16:02.094Z,101164.19
2022-08-03T06:18:28.728Z,101174.19
2022-08-03T06:20:55.396Z,101169.28
2022-08-03T06:23:22.072Z,101173.25
2022-08-03T06:25:48.866Z,101158.34
2022-08-03T06:28:42.540Z,101161.75
2022-08-03T06:31:02.414Z,101167.28
2022-08-03T06:34:30.602Z,101166.13
2022-08-03T06:36:16.248Z,101168.22
2022-08-03T06:38:42.889Z,101172.22
2022-08-03T06:41:09.643Z,101174.38
2022-08-03T06:44:02.510Z,101174.09
2022-08-03T06:46:24.314Z,101173.56
2022-08-03T06:48:51.114Z,101164.88
2022-08-03T06:51:19.706Z,101168.00
2022-08-03T06:53:46.366Z,101167.28
2022-08-03T06:56:13.015Z,101158.13
2022-08-03T06:58:39.686Z,101168.03
2022-08-03T07:01:06.336Z,101167.91
2022-08-03T07:03:33.078Z,101155.81
2022-08-03T07:05:59.817Z,101169.41
2022-08-03T07:08:33.774Z,101184.00
2022-08-03T07:11:01.376Z,101175.97
2022-08-03T07:13:30.298Z,101177.00
2022-08-03T07:15:56.974Z,101175.44
2022-08-03T07:18:27.567Z,101172.59
2022-08-03T07:20:57.090Z,101177.28
2022-08-03T07:23:23.723Z,101181.69
2022-08-03T07:25:51.052Z,101175.72
2022-08-03T07:28:18.095Z,101172.81
2022-08-03T07:30:44.696Z,101176.97
2022-08-03T07:33:11.452Z,101187.72
2022-08-03T07:35:38.125Z,101185.63
2022-08-03T07:38:04.768Z,101177.81
2022-08-03T07:40:32.003Z,101181.13
2022-08-03T07:43:00.046Z,101175.19
2022-08-03T07:45:27.070Z,101181.78
2022-08-03T07:47:54.214Z,101178.03
2022-08-03T07:50:21.634Z,101178.44
2022-08-03T07:52:53.780Z,101184.50
2022-08-03T07:55:21.589Z,101185.63
2022-08-03T07:57:48.928Z,101175.94
2022-08-03T08:00:19.726Z,101182.69
2022-08-03T08:02:52.950Z,101189.28
2022-08-03T08:05:19.663Z,101188.53
2022-08-03T08:07:51.587Z,101188.34
2022-08-03T08:10:18.520Z,101196.97
2022-08-03T08:12:53.076Z,101191.44
2022-08-03T08:15:19.985Z,101179.88
2022-08-03T08:17:48.888Z,101163.41
2022-08-03T08:20:18.221Z,101176.44
2022-08-03T08:22:53.301Z,101173.63
2022-08-03T08:25:20.114Z,101174.16
2022-08-03T08:28:29.458Z,101173.88
2022-08-03T08:30:35.351Z,101183.81
2022-08-03T08:33:02.145Z,101178.09
2022-08-03T08:35:29.026Z,101170.16
2022-08-03T08:37:55.686Z,101169.97
2022-08-03T08:40:23.625Z,101166.19
2022-08-03T08:42:59.070Z,101172.34
2022-08-03T08:45:26.058Z,101173.38
2022-08-03T08:48:00.203Z,101186.63
2022-08-03T08:50:28.680Z,101176.19
2022-08-03T08:52:56.613Z,101179.25
2022-08-03T08:55:23.885Z,101181.41
2022-08-03T08:57:52.879Z,101186.66
2022-08-03T09:00:19.550Z,101178.53
2022-08-03T09:02:53.490Z,101171.94
2022-08-03T09:05:27.793Z,101183.84
2022-08-03T09:08:07.593Z,101186.66
2022-08-03T09:10:35.015Z,101172.47
2022-08-03T09:13:01.832Z,101171.44
2022-08-03T09:15:34.319Z,101179.56
2022-08-03T09:18:01.751Z,101184.88
2022-08-03T09:20:29.921Z,101173.63
2022-08-03T09:23:12.998Z,101175.78
2022-08-03T09:25:48.616Z,101170.03
2022-08-03T09:28:58.172Z,101164.28
2022-08-03T09:31:03.797Z,101175.91
2022-08-03T09:33:35.903Z,101166.09
2022-08-03T09:36:02.992Z,101170.56
2022-08-03T09:38:29.600Z,101174.03
2022-08-03T09:40:59.931Z,101171.59
2022-08-03T09:43:27.957Z,101173.56
2022-08-03T09:46:02.855Z,101160.25
2022-08-03T09:48:30.842Z,101158.97
2022-08-03T09:51:13.026Z,101172.53
2022-08-03T09:53:58.579Z,101167.22
2022-08-03T09:56:37.495Z,101164.81
2022-08-03T09:59:04.167Z,101172.22
2022-08-03T10:01:35.382Z,101171.41
2022-08-03T10:04:03.900Z,101168.78
2022-08-03T10:06:31.274Z,101163.44
2022-08-03T10:09:08.561Z,101172.91
2022-08-03T10:11:40.904Z,101165.31
2022-08-03T10:14:09.797Z,101157.69
2022-08-03T10:16:37.577Z,101161.22
2022-08-03T10:19:05.188Z,101157.25
2022-08-03T10:21:36.768Z,101165.06
2022-08-03T10:24:07.992Z,101153.97
2022-08-03T10:26:36.784Z,101157.97
2022-08-03T10:29:05.657Z,101157.31
2022-08-03T10:31:57.764Z,101155.00
2022-08-03T10:34:26.474Z,101147.25
2022-08-03T10:36:55.736Z,101156.53
2022-08-03T10:39:23.172Z,101158.72
2022-08-03T10:41:50.791Z,101145.16
2022-08-03T10:44:22.243Z,101144.31
2022-08-03T10:46:50.538Z,101150.13
2022-08-03T10:49:25.488Z,101145.03
2022-08-03T10:52:02.672Z,101146.34
2022-08-03T10:54:36.470Z,101159.47
2022-08-03T10:57:23.450Z,101148.72
2022-08-03T10:59:51.536Z,101146.41
2022-08-03T11:02:18.951Z,101141.81
2022-08-03T11:04:45.732Z,101138.34
2022-08-03T11:07:18.610Z,101152.91
2022-08-03T11:09:48.840Z,101130.56
2022-08-03T11:12:21.460Z,101149.97
2022-08-03T11:14:58.715Z,101136.09
2022-08-03T11:17:25.505Z,101132.09
2022-08-03T11:19:57.814Z,101129.16
2022-08-03T11:22:25.305Z,101132.97
2022-08-03T11:24:54.310Z,101130.50
2022-08-03T11:27:24.852Z,101133.34
2022-08-03T11:29:54.259Z,101133.16
2022-08-03T11:32:54.532Z,101132.84
2022-08-03T11:35:22.613Z,101136.19
2022-08-03T11:38:03.058Z,101148.50
2022-08-03T11:40:42.562Z,101142.31
2022-08-03T11:43:11.109Z,101146.28
2022-08-03T11:45:37.889Z,101137.19
2022-08-03T11:48:22.777Z,101139.84
2022-08-03T11:50:49.895Z,101138.03
2022-08-03T11:53:17.478Z,101133.72
2022-08-03T11:55:48.953Z,101134.25
2022-08-03T11:59:16.587Z,101126.41
2022-08-03T12:01:06.894Z,101134.56
2022-08-03T12:03:34.482Z,101126.25
2022-08-03T12:06:04.953Z,101133.25
2022-08-03T12:08:32.758Z,101134.91
2022-08-03T12:11:00.796Z,101121.31
2022-08-03T12:14:43.824Z,101131.94
2022-08-03T12:16:18.976Z,101127.78
2022-08-03T12:18:45.871Z,101132.59
2022-08-03T12:21:12.840Z,101134.44
2022-08-03T12:23:39.580Z,101132.63
2022-08-03T12:26:10.147Z,101133.59
2022-08-03T12:28:38.387Z,101140.25
2022-08-03T12:31:07.598Z,101133.31
2022-08-03T12:33:54.224Z,101134.31
2022-08-03T12:36:20.926Z,101123.88
2022-08-03T12:38:55.029Z,101142.97
2022-08-03T12:41:27.737Z,101129.84
2022-08-03T12:43:55.291Z,101126.03
2022-08-03T12:46:22.020Z,101129.06
2022-08-03T12:48:58.472Z,101127.03
2022-08-03T12:51:28.443Z,101125.56
2022-08-03T12:53:56.359Z,101126.28
2022-08-03T12:56:23.169Z,101132.94
2022-08-03T12:58:57.419Z,101134.59
2022-08-03T13:01:26.044Z,101128.97
2022-08-03T13:03:54.093Z,101121.97
2022-08-03T13:06:22.552Z,101118.84
2022-08-03T13:08:49.778Z,101119.31
2022-08-03T13:11:23.012Z,101116.16
2022-08-03T13:14:09.839Z,101110.38
2022-08-03T13:16:43.353Z,101122.81
2022-08-03T13:19:15.704Z,101115.34
2022-08-03T13:22:01.865Z,101120.16
2022-08-03T13:24:30.358Z,101120.50
2022-08-03T13:26:57.246Z,101116.53
2022-08-03T13:29:23.934Z,101126.00
2022-08-03T13:31:51.277Z,101118.34
2022-08-03T13:34:23.070Z,101115.19
2022-08-03T13:37:10.874Z,101112.53
2022-08-03T13:39:58.354Z,101107.38
2022-08-03T13:42:24.823Z,101106.06
2022-08-03T13:44:52.587Z,101095.91
2022-08-03T13:47:19.676Z,101102.56
2022-08-03T13:49:56.942Z,101115.84
2022-08-03T13:52:27.858Z,101108.72
2022-08-03T13:54:54.612Z,101099.41
2022-08-03T13:58:06.435Z,101104.91
2022-08-03T14:00:08.483Z,101100.88
2022-08-03T14:02:35.332Z,101099.41
2022-08-03T14:05:03.307Z,101100.72
2022-08-03T14:07:30.027Z,101091.91
2022-08-03T14:09:57.113Z,101084.75
2022-08-03T14:12:23.777Z,101084.09
2022-08-03T14:14:50.429Z,101089.25
2022-08-03T14:17:17.295Z,101097.75
2022-08-03T14:19:53.301Z,101084.78
2022-08-03T14:22:22.992Z,101080.78
2022-08-03T14:24:49.651Z,101088.94
2022-08-03T14:27:18.353Z,101087.44
2022-08-03T14:29:45.107Z,101077.31
2022-08-03T14:32:13.459Z,101092.25
2022-08-03T14:34:41.713Z,101073.28
2022-08-03T14:37:08.533Z,101074.28
2022-08-03T14:42:21.875Z,101067.13
2022-08-03T14:44:49.521Z,101058.81
2022-08-03T14:47:16.259Z,101059.97
2022-08-03T14:50:37.524Z,101058.97
2022-08-03T14:52:30.156Z,101058.13
2022-08-03T14:54:59.724Z,101056.47
2022-08-03T14:57:26.608Z,101051.47
2022-08-03T14:59:57.704Z,101050.66
2022-08-03T15:02:28.078Z,101060.78
2022-08-03T15:04:54.800Z,101050.81
2022-08-03T15:07:21.815Z,101041.16
2022-08-03T15:09:49.368Z,101041.31
2022-08-03T15:12:16.015Z,101037.66
2022-08-03T15:14:42.665Z,101045.94
2022-08-03T15:17:09.633Z,101045.13
2022-08-03T15:20:03.404Z,101036.97
2022-08-03T15:22:25.456Z,101035.28
2022-08-03T15:26:30.292Z,101032.13
2022-08-03T15:28:04.155Z,101020.00
2022-08-03T15:30:34.053Z,101022.34
2022-08-03T15:33:00.704Z,101035.97
2022-08-03T15:35:29.071Z,101035.97
2022-08-03T15:37:55.903Z,101024.66
2022-08-03T15:40:22.953Z,101030.00
2022-08-03T15:42:56.390Z,101015.03
2022-08-03T15:45:23.265Z,101011.34
2022-08-03T15:47:49.960Z,101017.31
2022-08-03T15:50:16.603Z,101021.66
2022-08-03T15:52:54.993Z,101028.47
2022-08-03T15:55:21.743Z,101021.97
2022-08-03T15:59:03.436Z,101014.34
2022-08-03T16:00:35.380Z,101016.31
2022-08-03T16:03:02.667Z,101021.31
2022-08-03T16:05:29.673Z,101023.47
2022-08-03T16:07:58.625Z,101014.66
2022-08-03T16:10:30.911Z,101022.63
2022-08-03T16:12:59.111Z,101009.84
2022-08-03T16:15:25.798Z,101013.81
2022-08-03T16:17:52.549Z,101020.13
2022-08-03T16:20:33.859Z,101029.97
2022-08-03T16:23:10.489Z,101017.81
2022-08-03T16:25:41.610Z,101027.97
2022-08-03T16:28:13.847Z,101019.13
2022-08-03T16:30:42.364Z,101032.78
2022-08-03T16:33:09.374Z,101024.13
2022-08-03T16:35:36.175Z,101033.75
2022-08-03T16:38:07.817Z,101027.41
2022-08-03T16:40:36.688Z,101025.13
2022-08-03T16:43:10.604Z,101029.97
2022-08-03T16:45:45.335Z,101024.63
2022-08-03T16:48:11.971Z,101023.78
2022-08-03T16:50:38.586Z,101026.28
2022-08-03T16:53:09.170Z,101031.44
2022-08-03T16:55:51.634Z,101033.81
2022-08-03T16:58:34.868Z,101025.66
2022-08-03T17:01:22.603Z,101019.16
2022-08-03T17:04:02.046Z,101019.84
2022-08-03T17:06:34.106Z,101026.47
2022-08-03T17:09:01.463Z,101024.47
2022-08-03T17:11:30.038Z,101028.16
2022-08-03T17:13:59.759Z,101019.34
2022-08-03T17:16:26.438Z,101023.78
2022-08-03T17:18:57.698Z,101021.16
2022-08-03T17:21:30.850Z,101026.63
2022-08-03T17:24:02.827Z,101018.97
2022-08-03T17:26:31.384Z,101016.50
2022-08-03T17:29:02.326Z,101015.66
2022-08-03T17:31:49.076Z,101018.50
2022-08-03T17:34:16.916Z,101014.00
2022-08-03T17:39:56.881Z,101018.66
2022-08-03T17:42:29.071Z,101017.66
2022-08-03T17:44:57.611Z,101010.50
2022-08-03T17:47:29.355Z,101001.16
2022-08-03T17:50:23.930Z,101011.19
2022-08-03T17:53:42.748Z,101008.16
2022-08-03T17:56:38.736Z,101016.97
2022-08-03T17:59:50.317Z,101023.47
2022-08-03T18:02:30.777Z,101023.47
2022-08-03T18:05:17.219Z,101029.97
2022-08-03T18:07:48.369Z,101022.63
2022-08-03T18:10:24.617Z,101021.81
2022-08-03T18:12:52.467Z,101020.31
2022-08-03T18:15:25.406Z,101021.66
2022-08-03T18:17:57.954Z,101020.13
2022-08-03T18:20:34.400Z,101030.97
2022-08-03T18:23:09.019Z,101021.97
2022-08-03T18:25:45.353Z,101031.31
2022-08-03T18:28:16.196Z,101023.97
2022-08-03T18:30:53.976Z,101027.31
2022-08-03T18:34:18.153Z,101026.34
2022-08-03T18:36:09.504Z,101025.50
2022-08-03T18:38:36.707Z,101026.34
2022-08-03T18:41:06.057Z,101033.66
2022-08-03T18:44:07.285Z,101046.81
2022-08-03T18:46:46.291Z,101043.97
2022-08-03T18:49:35.002Z,101035.69
2022-08-03T18:52:12.354Z,101032.16
2022-08-03T18:55:07.347Z,101033.84
2022-08-03T18:57:46.398Z,101042.50
2022-08-03T19:00:23.941Z,101031.66
2022-08-03T19:03:05.133Z,101035.84
2022-08-03T19:05:55.137Z,101029.00
2022-08-03T19:08:25.990Z,101041.00
2022-08-03T19:10:57.754Z,101036.03
2022-08-03T19:13:36.108Z,101041.38
2022-08-03T19:16:08.548Z,101047.66
2022-08-03T19:18:37.591Z,101047.34
2022-08-03T19:21:12.817Z,101051.34
2022-08-03T19:23:44.805Z,101047.50
2022-08-03T19:26:30.118Z,101045.53
2022-08-03T19:28:57.623Z,101048.03
2022-08-03T19:31:31.044Z,101058.66
2022-08-03T19:34:03.033Z,101050.34
2022-08-03T19:36:31.726Z,101058.50
2022-08-03T19:38:58.623Z,101062.66
2022-08-03T19:41:31.097Z,101058.16
2022-08-03T19:44:19.993Z,101045.56
2022-08-03T19:46:50.359Z,101054.19
2022-08-03T19:49:20.315Z,101068.47
2022-08-03T19:52:01.083Z,101072.31
2022-08-03T19:54:35.924Z,101063.34
2022-08-03T19:57:03.086Z,101066.50
2022-08-03T19:59:34.605Z,101072.78
2022-08-03T20:02:04.803Z,101070.47
2022-08-03T20:04:32.361Z,101072.81
2022-08-03T20:06:59.731Z,101083.78
2022-08-03T20:09:30.495Z,101098.22
2022-08-03T20:11:57.611Z,101095.75
2022-08-03T20:14:26.627Z,101094.75
2022-08-03T20:16:53.830Z,101091.44
2022-08-03T20:19:20.554Z,101095.41
2022-08-03T20:21:48.697Z,101097.59
2022-08-03T20:24:41.941Z,101091.28
2022-08-03T20:27:15.540Z,101099.38
2022-08-03T20:30:06.206Z,101093.25
2022-08-03T20:32:34.536Z,101083.63
2022-08-03T20:35:01.214Z,101085.25
2022-08-03T20:37:27.904Z,101091.75
2022-08-03T20:39:57.279Z,101092.94
2022-08-03T20:42:24.191Z,101092.75
2022-08-03T20:47:50.308Z,101097.91
2022-08-03T20:50:31.485Z,101101.22
2022-08-03T20:52:59.214Z,101095.09
2022-08-03T20:55:47.888Z,101102.41
2022-08-03T20:58:18.983Z,101091.09
2022-08-03T21:00:46.621Z,101089.44
2022-08-03T21:03:18.242Z,101096.41
2022-08-03T21:05:51.793Z,101087.09
2022-08-03T21:08:22.492Z,101082.94
2022-08-03T21:10:50.371Z,101083.13
2022-08-03T21:13:12.284Z,101092.44
2022-08-03T21:13:26.630Z,101085.44
2022-08-03T21:16:06.493Z,101084.44
2022-08-03T21:19:00.542Z,101087.59
2022-08-03T21:21:30.780Z,101083.78
2022-08-03T21:23:58.569Z,101092.75
2022-08-03T21:26:26.050Z,101087.75
2022-08-03T21:28:54.689Z,101091.75
2022-08-03T21:31:25.460Z,101099.91
2022-08-03T21:33:56.696Z,101095.09
2022-08-03T21:36:23.811Z,101096.72
2022-08-03T21:38:56.160Z,101099.38
2022-08-03T21:41:24.427Z,101094.25
2022-08-03T21:43:51.043Z,101082.78
2022-08-03T21:46:19.116Z,101088.59
2022-08-03T21:48:47.497Z,101093.25
2022-08-03T21:51:16.621Z,101091.22
2022-08-03T21:54:04.281Z,101094.56
2022-08-03T21:56:32.153Z,101097.22
2022-08-03T21:59:05.509Z,101096.88
2022-08-03T22:01:35.259Z,101103.69
2022-08-03T22:04:03.854Z,101099.38
2022-08-03T22:06:30.480Z,101109.84
2022-08-03T22:08:57.127Z,101115.47
2022-08-03T22:11:23.789Z,101102.88
2022-08-03T22:13:50.800Z,101110.84
2022-08-03T22:16:17.745Z,101103.88
2022-08-03T22:18:45.195Z,101109.47
2022-08-03T22:21:12.595Z,101112.44
2022-08-03T22:23:40.711Z,101115.63
2022-08-03T22:26:11.012Z,101116.81
2022-08-03T22:28:37.822Z,101119.75
2022-08-03T22:31:30.891Z,101117.16
2022-08-03T22:33:52.775Z,101117.44
2022-08-03T22:36:20.726Z,101125.56
2022-08-03T22:38:47.854Z,101115.63
2022-08-03T22:41:17.628Z,101122.28
2022-08-03T22:43:44.405Z,101123.91
2022-08-03T22:46:15.620Z,101129.13
2022-08-03T22:48:47.539Z,101130.09
2022-08-03T22:51:15.535Z,101132.69
2022-08-03T22:53:42.231Z,101128.22
2022-08-03T22:56:09.151Z,101137.53
2022-08-03T22:58:35.937Z,101143.50
2022-08-03T23:01:04.384Z,101141.16
2022-08-03T23:04:01.040Z,101136.88
2022-08-03T23:06:19.938Z,101141.88
2022-08-03T23:08:47.680Z,101138.19
2022-08-03T23:11:17.783Z,101140.13
2022-08-03T23:13:46.429Z,101143.66
2022-08-03T23:16:14.745Z,101145.97
2022-08-03T23:18:42.697Z,101134.03
2022-08-03T23:21:11.258Z,101138.84
2022-08-03T23:23:43.837Z,101145.09
2022-08-03T23:26:11.681Z,101149.41
2022-08-03T23:28:38.601Z,101157.44
2022-08-03T23:31:08.016Z,101145.63
2022-08-03T23:33:37.535Z,101149.97
2022-08-03T23:36:28.660Z,101152.94
2022-08-03T23:38:53.627Z,101141.13
2022-08-03T23:41:20.354Z,101145.63
2022-08-03T23:43:51.792Z,101144.09
2022-08-03T23:46:21.414Z,101141.25
2022-08-03T23:48:48.119Z,101142.75
2022-08-03T23:51:27.596Z,101143.59
2022-08-03T23:54:14.510Z,101133.94
2022-08-03T23:56:41.379Z,101139.09
2022-08-03T23:59:17.045Z,101139.81
